PWSweather.com
Personal Weather Stations
Station Observations
WISCHPK61
Green Bay Schmitt Park, Green Bay, WI 54311

Green Bay Schmitt ParkGreen Bay, WI 54311

Lat: 44.514277, Lon: -87.935067

Elevation: 735

Station Type: Acu Rite Pro Weather Center model 02032C

http://greenbayweathercam.com

High Low Average
Temperature 95.6°F35.3°C 69.3°F20.7°C 79.4°F26.3°C
Dew Point 95.3°F35.2°C 69.0°F20.6°C 79.1°F26.2°C
Winds 1.2 mph 1.9 kmh Calm Calm Calm SCalm S
Wind Gusts 5.8 mph9.3 kmh -- 1.0 mph1.6 kmh
Humidity 99% 99% 99%
Pressure 29.26 in990.9 mb 29.18 in988.1 mb -
Precipitation 0.00 in0.0 mm - -
Hour Temp Dew Point Humidity Winds Wind Gusts Pressure Precip Precip Rate Daily Precip Total
12:00 AM 72.7°F22.6°C 72.4°F22.4°C 99% Calm Calm -- 29.26 in990.9 mb - 0.00 in0.0 mm 0.00 in0.0 mm
01:00 AM 71.8°F22.1°C 71.5°F21.9°C 99% Calm Calm -- 29.25 in990.5 mb - 0.00 in0.0 mm 0.00 in0.0 mm
02:00 AM 71.2°F21.8°C 70.9°F21.6°C 99% Calm Calm -- 29.24 in990.2 mb - 0.00 in0.0 mm 0.00 in0.0 mm
03:00 AM 71.1°F21.7°C 70.8°F21.6°C 99% Calm Calm -- 29.23 in989.8 mb - 0.00 in0.0 mm 0.00 in0.0 mm
04:00 AM 70.5°F21.4°C 70.2°F21.2°C 99% Calm Calm -- 29.24 in990.2 mb - 0.00 in0.0 mm 0.00 in0.0 mm
05:00 AM 69.6°F20.9°C 69.3°F20.7°C 99% Calm Calm -- 29.24 in990.2 mb - 0.00 in0.0 mm 0.00 in0.0 mm
06:00 AM 69.3°F20.7°C 69.0°F20.6°C 99% Calm Calm -- 29.25 in990.5 mb - 0.00 in0.0 mm 0.00 in0.0 mm
07:00 AM 71.1°F21.7°C 70.8°F21.6°C 99% Calm Calm -- 29.25 in990.5 mb - 0.00 in0.0 mm 0.00 in0.0 mm
08:00 AM 75.2°F24.0°C 74.9°F23.8°C 99% Calm Calm -- 29.24 in990.2 mb - 0.00 in0.0 mm 0.00 in0.0 mm
09:00 AM 79.7°F26.5°C 79.4°F26.3°C 99% Calm Calm -- 29.24 in990.2 mb - 0.00 in0.0 mm 0.00 in0.0 mm
10:00 AM 83.5°F28.6°C 83.2°F28.4°C 99% Calm Calm 5.8 mph9.3 kmh 29.23 in989.8 mb - 0.00 in0.0 mm 0.00 in0.0 mm
11:00 AM 86.2°F30.1°C 85.9°F29.9°C 99% 1.2 mph WSW1.9 kmh WSW 2.3 mph3.7 kmh 29.23 in989.8 mb - 0.00 in0.0 mm 0.00 in0.0 mm
12:00 PM 90.6°F32.6°C 90.3°F32.4°C 99% 1.2 mph WSW1.9 kmh WSW 1.2 mph1.9 kmh 29.22 in989.5 mb - 0.00 in0.0 mm 0.00 in0.0 mm
01:00 PM 95.6°F35.3°C 95.3°F35.2°C 99% 1.2 mph SSW1.9 kmh SSW 2.3 mph3.7 kmh 29.22 in989.5 mb - 0.00 in0.0 mm 0.00 in0.0 mm
02:00 PM 91.9°F33.3°C 91.6°F33.1°C 99% Calm Calm -- 29.20 in988.8 mb - 0.00 in0.0 mm 0.00 in0.0 mm
03:00 PM 89.2°F31.8°C 88.9°F31.6°C 99% Calm Calm -- 29.19 in988.5 mb - 0.00 in0.0 mm 0.00 in0.0 mm
04:00 PM 87.8°F31.0°C 87.5°F30.8°C 99% 1.2 mph S1.9 kmh S 1.2 mph1.9 kmh 29.18 in988.1 mb - 0.00 in0.0 mm 0.00 in0.0 mm
05:00 PM 86.4°F30.2°C 86.1°F30.1°C 99% Calm Calm -- 29.19 in988.5 mb - 0.00 in0.0 mm 0.00 in0.0 mm
06:00 PM 84.4°F29.1°C 84.1°F28.9°C 99% Calm Calm -- 29.20 in988.8 mb - 0.00 in0.0 mm 0.00 in0.0 mm
07:00 PM 81.5°F27.5°C 81.2°F27.3°C 99% Calm Calm -- 29.18 in988.1 mb - 0.00 in0.0 mm 0.00 in0.0 mm
08:00 PM 78.8°F26.0°C 78.5°F25.8°C 99% Calm Calm -- 29.19 in988.5 mb - 0.00 in0.0 mm 0.00 in0.0 mm
09:00 PM 77.2°F25.1°C 76.9°F24.9°C 99% Calm Calm -- 29.20 in988.8 mb - 0.00 in0.0 mm 0.00 in0.0 mm
10:00 PM 75.7°F24.3°C 75.4°F24.1°C 99% Calm Calm -- 29.20 in988.8 mb - 0.00 in0.0 mm 0.00 in0.0 mm
11:00 PM 74.7°F23.7°C 74.4°F23.6°C 99% Calm Calm -- 29.20 in988.8 mb - 0.00 in0.0 mm 0.00 in0.0 mm